Current Weather

Odiham

Odiham, United Kingdom (EGVO)

Report from: Saturday, June 22, 2024 9:20 AM BST
Current time: Saturday, June 22, 2024 10:04 AM BST

Nearby weather – Weather history – Daily summaries
Weather forecast

Temperature16.0°C (60.8°F)
Dew point13.0°C (55.4°F)
Winds 10 kts (5.1 m/s, 11.5 mph) West-Southwest (250°)
Visibility6.2 mi. (10 km)
Clouds Ceiling: Overcast 1,300 ft. (396 m)
Altimeter29.88 in.Hg (1012 mB)
Relative humidity82 %
Density altitude369 ft. (112 m)
Remarks Fully automated report
Flight conditions Marginal Visual Meteorological Conditions
Raw dataEGVO 220820Z AUTO 25010KT 9999 OVC013/// 16/13 Q1012
An error has occurred. This application may no longer respond until reloaded. Reload 🗙